메인 페이지
METAR-TAF:

METAR-TAF

공항 :

시몬 볼리바르 국제공항

카라카스, 베네수엘라

위도: 10-36N, 경도: 066-59W, 고도: 43m

현재 날씨관측

예보는 49분 전, 21:00시(UTC)에 발표되었습니다.
5kt
온도 31°C
습도 59%
기압 1009 hPa
시정 10km 이상
고도 1600ft 상공 구름 보통

METAR: SVMI 222100Z 09005KT 9999 SCT016 31/22 Q1009

시각: 17:49 (21:49 UTC)

예보

예보는 5 시간 49분 전, 16:00시(UTC)에 발표되었습니다.
예보 대상 시간: 22일 18시부터 23일 18시까지 (UTC)
9kt
시정 10km 이상
고도 1600ft 상공 구름 보통
전환 중
22일 18시부터 22일 23시까지 (UTC)
서남서9kt
시정 10km 이상
고도 1600ft 상공 구름 보통

TAF: SVMI 221600Z 2218/2318 26009KT 9999 SCT016 TX31/2218Z TN24/2308Z BECMG 2218/2223 25009KT 9999 SCT016

4,000개 이상의 공항 관측 자료 및 예보 (METAR 및 TAF 보고).

지도상에서 검색 가능한 기상관측소가 노란 점과 빨간 점으로 표시되어 있습니다.

기상관측소 명을 보려면 표시 위로 마우스를 이동하세요.

날씨 관측과 예보를 보려면 클릭하세요.

지도 변경 : 확대하려면 엑스 표시가 있는 녹색 버튼, 축소하려면 빼기 표시가 있는 녹색 버튼, 다음 페이지의 지도를 보려면 녹색 화살표를 클릭하세요.


METAR-TAF: